sensor_id;sensor_type;location;lat;lon;timestamp;temperature;humidity
10873;DHT22;34586;53.616;10.032;2022-11-12T00:00:23;11.10;99.90
10873;DHT22;34586;53.616;10.032;2022-11-12T00:02:49;11.10;99.90
10873;DHT22;34586;53.616;10.032;2022-11-12T00:05:15;11.20;99.90
10873;DHT22;34586;53.616;10.032;2022-11-12T00:07:40;11.10;99.90
10873;DHT22;34586;53.616;10.032;2022-11-12T00:10:07;11.20;99.90
10873;DHT22;34586;53.616;10.032;2022-11-12T00:12:33;11.20;99.90
10873;DHT22;34586;53.616;10.032;2022-11-12T00:14:59;11.10;99.90
10873;DHT22;34586;53.616;10.032;2022-11-12T00:17:25;11.20;99.90
10873;DHT22;34586;53.616;10.032;2022-11-12T00:19:51;11.10;99.90
10873;DHT22;34586;53.616;10.032;2022-11-12T00:22:16;11.20;99.90
10873;DHT22;34586;53.616;10.032;2022-11-12T00:24:42;11.10;99.90
10873;DHT22;34586;53.616;10.032;2022-11-12T00:27:08;11.10;99.90
10873;DHT22;34586;53.616;10.032;2022-11-12T00:29:35;11.20;99.90
10873;DHT22;34586;53.616;10.032;2022-11-12T00:32:00;11.10;99.90
10873;DHT22;34586;53.616;10.032;2022-11-12T00:34:26;11.10;99.90
10873;DHT22;34586;53.616;10.032;2022-11-12T00:36:52;11.10;99.90
10873;DHT22;34586;53.616;10.032;2022-11-12T00:39:17;11.20;99.90
10873;DHT22;34586;53.616;10.032;2022-11-12T00:41:43;11.20;99.90
10873;DHT22;34586;53.616;10.032;2022-11-12T00:44:10;11.20;99.70
10873;DHT22;34586;53.616;10.032;2022-11-12T00:46:36;11.10;98.00
10873;DHT22;34586;53.616;10.032;2022-11-12T00:49:02;11.20;96.90
10873;DHT22;34586;53.616;10.032;2022-11-12T00:51:28;11.10;79.90
10873;DHT22;34586;53.616;10.032;2022-11-12T00:53:54;11.10;72.30
10873;DHT22;34586;53.616;10.032;2022-11-12T00:56:19;11.10;63.90
10873;DHT22;34586;53.616;10.032;2022-11-12T00:58:45;11.10;71.30
10873;DHT22;34586;53.616;10.032;2022-11-12T01:01:14;11.10;69.90
10873;DHT22;34586;53.616;10.032;2022-11-12T01:03:41;11.10;30.40
10873;DHT22;34586;53.616;10.032;2022-11-12T01:06:14;11.10;48.40
10873;DHT22;34586;53.616;10.032;2022-11-12T01:08:41;11.10;34.90
10873;DHT22;34586;53.616;10.032;2022-11-12T01:13:38;11.20;20.20
10873;DHT22;34586;53.616;10.032;2022-11-12T01:16:05;11.10;5.10
10873;DHT22;34586;53.616;10.032;2022-11-12T01:18:31;11.10;2.50
10873;DHT22;34586;53.616;10.032;2022-11-12T01:21:03;11.10;1.00
10873;DHT22;34586;53.616;10.032;2022-11-12T01:23:31;11.20;5.80
10873;DHT22;34586;53.616;10.032;2022-11-12T01:25:58;11.20;1.00
10873;DHT22;34586;53.616;10.032;2022-11-12T01:28:23;11.20;1.00
10873;DHT22;34586;53.616;10.032;2022-11-12T01:30:49;11.20;1.00
10873;DHT22;34586;53.616;10.032;2022-11-12T01:33:15;11.20;1.00
10873;DHT22;34586;53.616;10.032;2022-11-12T01:35:41;11.20;1.00
10873;DHT22;34586;53.616;10.032;2022-11-12T01:38:07;11.20;1.00
10873;DHT22;34586;53.616;10.032;2022-11-12T01:40:32;11.20;1.00
10873;DHT22;34586;53.616;10.032;2022-11-12T01:42:58;11.20;1.00
10873;DHT22;34586;53.616;10.032;2022-11-12T01:45:23;11.30;1.00
10873;DHT22;34586;53.616;10.032;2022-11-12T01:47:50;11.30;1.00
10873;DHT22;34586;53.616;10.032;2022-11-12T01:50:28;11.30;1.00
10873;DHT22;34586;53.616;10.032;2022-11-12T01:53:07;11.20;1.00
10873;DHT22;34586;53.616;10.032;2022-11-12T01:55:36;11.30;1.00
10873;DHT22;34586;53.616;10.032;2022-11-12T01:58:13;11.30;1.00
10873;DHT22;34586;53.616;10.032;2022-11-12T02:00:40;11.30;1.00
10873;DHT22;34586;53.616;10.032;2022-11-12T02:03:11;11.20;1.00
10873;DHT22;34586;53.616;10.032;2022-11-12T02:05:38;11.20;1.00
10873;DHT22;34586;53.616;10.032;2022-11-12T02:08:05;11.20;1.00
10873;DHT22;34586;53.616;10.032;2022-11-12T02:10:33;11.30;1.00
10873;DHT22;34586;53.616;10.032;2022-11-12T02:12:59;11.20;1.00
10873;DHT22;34586;53.616;10.032;2022-11-12T02:15:44;11.20;1.00
10873;DHT22;34586;53.616;10.032;2022-11-12T02:18:10;11.10;1.00
10873;DHT22;34586;53.616;10.032;2022-11-12T02:20:36;11.00;1.00
10873;DHT22;34586;53.616;10.032;2022-11-12T02:23:04;11.00;1.00
10873;DHT22;34586;53.616;10.032;2022-11-12T02:25:30;10.90;1.00
10873;DHT22;34586;53.616;10.032;2022-11-12T02:27:57;10.90;1.00
10873;DHT22;34586;53.616;10.032;2022-11-12T02:30:42;10.80;1.00
10873;DHT22;34586;53.616;10.032;2022-11-12T02:33:07;10.70;1.00
10873;DHT22;34586;53.616;10.032;2022-11-12T02:35:33;10.60;1.00
10873;DHT22;34586;53.616;10.032;2022-11-12T02:38:00;10.60;1.00
10873;DHT22;34586;53.616;10.032;2022-11-12T02:40:29;10.50;1.00
10873;DHT22;34586;53.616;10.032;2022-11-12T02:42:54;10.50;1.00
10873;DHT22;34586;53.616;10.032;2022-11-12T02:45:20;10.50;1.00
10873;DHT22;34586;53.616;10.032;2022-11-12T02:47:46;10.40;22.00
10873;DHT22;34586;53.616;10.032;2022-11-12T02:50:13;10.40;55.90
10873;DHT22;34586;53.616;10.032;2022-11-12T02:52:39;10.30;59.70
10873;DHT22;34586;53.616;10.032;2022-11-12T02:55:07;10.20;59.40
10873;DHT22;34586;53.616;10.032;2022-11-12T02:57:33;10.20;82.60
10873;DHT22;34586;53.616;10.032;2022-11-12T02:59:58;10.10;95.20
10873;DHT22;34586;53.616;10.032;2022-11-12T03:02:24;10.20;86.50
10873;DHT22;34586;53.616;10.032;2022-11-12T03:04:50;10.10;72.90
10873;DHT22;34586;53.616;10.032;2022-11-12T03:07:16;10.00;88.10
10873;DHT22;34586;53.616;10.032;2022-11-12T03:09:42;10.00;88.90
10873;DHT22;34586;53.616;10.032;2022-11-12T03:12:08;9.90;96.60
10873;DHT22;34586;53.616;10.032;2022-11-12T03:14:34;9.80;99.90
10873;DHT22;34586;53.616;10.032;2022-11-12T03:16:59;9.80;99.90
10873;DHT22;34586;53.616;10.032;2022-11-12T03:19:25;9.70;99.90
10873;DHT22;34586;53.616;10.032;2022-11-12T03:21:50;9.70;99.90
10873;DHT22;34586;53.616;10.032;2022-11-12T03:24:16;9.60;99.90
10873;DHT22;34586;53.616;10.032;2022-11-12T03:26:43;9.70;99.90
10873;DHT22;34586;53.616;10.032;2022-11-12T03:29:09;9.50;99.90
10873;DHT22;34586;53.616;10.032;2022-11-12T03:31:34;9.50;99.90
10873;DHT22;34586;53.616;10.032;2022-11-12T03:34:00;9.50;99.90
10873;DHT22;34586;53.616;10.032;2022-11-12T03:36:26;9.50;99.90
10873;DHT22;34586;53.616;10.032;2022-11-12T03:38:51;9.50;99.90
10873;DHT22;34586;53.616;10.032;2022-11-12T03:41:17;9.50;99.90
10873;DHT22;34586;53.616;10.032;2022-11-12T03:43:42;9.40;96.20
10873;DHT22;34586;53.616;10.032;2022-11-12T03:46:08;9.40;99.90
10873;DHT22;34586;53.616;10.032;2022-11-12T03:48:34;9.30;99.90
10873;DHT22;34586;53.616;10.032;2022-11-12T03:50:59;9.30;99.90
10873;DHT22;34586;53.616;10.032;2022-11-12T03:53:26;9.20;99.90
10873;DHT22;34586;53.616;10.032;2022-11-12T03:55:52;9.20;99.90
10873;DHT22;34586;53.616;10.032;2022-11-12T03:58:18;9.20;99.90
10873;DHT22;34586;53.616;10.032;2022-11-12T04:00:44;9.20;99.90
10873;DHT22;34586;53.616;10.032;2022-11-12T04:03:09;9.10;99.90
10873;DHT22;34586;53.616;10.032;2022-11-12T04:05:36;9.00;99.90
10873;DHT22;34586;53.616;10.032;2022-11-12T04:08:22;9.00;99.90
10873;DHT22;34586;53.616;10.032;2022-11-12T04:11:02;8.90;99.90
10873;DHT22;34586;53.616;10.032;2022-11-12T04:13:28;8.90;99.90
10873;DHT22;34586;53.616;10.032;2022-11-12T04:15:58;8.80;99.90
10873;DHT22;34586;53.616;10.032;2022-11-12T04:18:44;8.80;99.90
10873;DHT22;34586;53.616;10.032;2022-11-12T04:21:35;8.70;99.90
10873;DHT22;34586;53.616;10.032;2022-11-12T04:24:45;8.60;99.90
10873;DHT22;34586;53.616;10.032;2022-11-12T04:27:31;8.60;99.90
10873;DHT22;34586;53.616;10.032;2022-11-12T04:29:58;8.50;99.90
10873;DHT22;34586;53.616;10.032;2022-11-12T04:32:50;8.50;99.90
10873;DHT22;34586;53.616;10.032;2022-11-12T04:35:19;8.40;99.90
10873;DHT22;34586;53.616;10.032;2022-11-12T04:37:45;8.30;99.90
10873;DHT22;34586;53.616;10.032;2022-11-12T04:40:16;8.40;99.90
10873;DHT22;34586;53.616;10.032;2022-11-12T04:43:01;8.20;99.90
10873;DHT22;34586;53.616;10.032;2022-11-12T04:45:47;8.20;99.90
10873;DHT22;34586;53.616;10.032;2022-11-12T04:48:14;8.20;99.90
10873;DHT22;34586;53.616;10.032;2022-11-12T04:50:41;8.10;99.90
10873;DHT22;34586;53.616;10.032;2022-11-12T04:53:09;8.20;99.90
10873;DHT22;34586;53.616;10.032;2022-11-12T04:55:36;8.10;99.90
10873;DHT22;34586;53.616;10.032;2022-11-12T04:58:02;8.00;99.90
10873;DHT22;34586;53.616;10.032;2022-11-12T05:00:29;8.00;99.90
10873;DHT22;34586;53.616;10.032;2022-11-12T05:02:56;8.00;99.90
10873;DHT22;34586;53.616;10.032;2022-11-12T05:05:23;8.00;99.90
10873;DHT22;34586;53.616;10.032;2022-11-12T05:07:48;8.00;99.90
10873;DHT22;34586;53.616;10.032;2022-11-12T05:10:17;7.90;99.90
10873;DHT22;34586;53.616;10.032;2022-11-12T05:12:43;7.80;99.90
10873;DHT22;34586;53.616;10.032;2022-11-12T05:15:09;7.80;99.90
10873;DHT22;34586;53.616;10.032;2022-11-12T05:17:40;7.80;99.90
10873;DHT22;34586;53.616;10.032;2022-11-12T05:20:06;7.90;99.90
10873;DHT22;34586;53.616;10.032;2022-11-12T05:22:32;7.80;99.90
10873;DHT22;34586;53.616;10.032;2022-11-12T05:24:58;7.80;99.90
10873;DHT22;34586;53.616;10.032;2022-11-12T05:27:23;7.70;99.90
10873;DHT22;34586;53.616;10.032;2022-11-12T05:29:49;7.80;99.90
10873;DHT22;34586;53.616;10.032;2022-11-12T05:32:15;7.70;99.90
10873;DHT22;34586;53.616;10.032;2022-11-12T05:34:41;7.60;99.90
10873;DHT22;34586;53.616;10.032;2022-11-12T05:37:10;7.60;99.90
10873;DHT22;34586;53.616;10.032;2022-11-12T05:39:36;7.50;99.90
10873;DHT22;34586;53.616;10.032;2022-11-12T05:42:02;7.50;99.90
10873;DHT22;34586;53.616;10.032;2022-11-12T05:44:28;7.50;99.90
10873;DHT22;34586;53.616;10.032;2022-11-12T05:46:53;7.40;99.90
10873;DHT22;34586;53.616;10.032;2022-11-12T05:49:19;7.40;99.90
10873;DHT22;34586;53.616;10.032;2022-11-12T05:51:45;7.50;99.90
10873;DHT22;34586;53.616;10.032;2022-11-12T05:54:11;7.30;99.90
10873;DHT22;34586;53.616;10.032;2022-11-12T05:56:37;7.30;99.90
10873;DHT22;34586;53.616;10.032;2022-11-12T05:59:05;7.20;99.90
10873;DHT22;34586;53.616;10.032;2022-11-12T06:01:31;7.40;99.90
10873;DHT22;34586;53.616;10.032;2022-11-12T06:03:57;7.10;99.90
10873;DHT22;34586;53.616;10.032;2022-11-12T06:06:23;7.30;99.90
10873;DHT22;34586;53.616;10.032;2022-11-12T06:08:49;7.20;99.90
10873;DHT22;34586;53.616;10.032;2022-11-12T06:11:15;7.10;99.90
10873;DHT22;34586;53.616;10.032;2022-11-12T06:13:41;7.10;99.90
10873;DHT22;34586;53.616;10.032;2022-11-12T06:16:07;7.20;99.90
10873;DHT22;34586;53.616;10.032;2022-11-12T06:18:32;7.10;99.90
10873;DHT22;34586;53.616;10.032;2022-11-12T06:21:07;7.10;99.90
10873;DHT22;34586;53.616;10.032;2022-11-12T06:23:56;7.10;99.90
10873;DHT22;34586;53.616;10.032;2022-11-12T06:26:24;7.00;99.90
10873;DHT22;34586;53.616;10.032;2022-11-12T06:28:50;7.00;99.90
10873;DHT22;34586;53.616;10.032;2022-11-12T06:31:17;7.10;99.90
10873;DHT22;34586;53.616;10.032;2022-11-12T06:33:43;7.10;99.90
10873;DHT22;34586;53.616;10.032;2022-11-12T06:36:11;7.10;99.90
10873;DHT22;34586;53.616;10.032;2022-11-12T06:38:38;7.10;99.90
10873;DHT22;34586;53.616;10.032;2022-11-12T06:41:06;7.40;99.90
10873;DHT22;34586;53.616;10.032;2022-11-12T06:43:33;7.10;99.90
10873;DHT22;34586;53.616;10.032;2022-11-12T06:46:04;7.00;99.90
10873;DHT22;34586;53.616;10.032;2022-11-12T06:48:30;7.00;99.90
10873;DHT22;34586;53.616;10.032;2022-11-12T06:50:57;7.00;99.90
10873;DHT22;34586;53.616;10.032;2022-11-12T06:53:24;7.10;99.90
10873;DHT22;34586;53.616;10.032;2022-11-12T06:55:51;7.10;99.90
10873;DHT22;34586;53.616;10.032;2022-11-12T06:58:16;7.00;99.90
10873;DHT22;34586;53.616;10.032;2022-11-12T07:00:42;7.00;99.90
10873;DHT22;34586;53.616;10.032;2022-11-12T07:03:11;7.00;99.90
10873;DHT22;34586;53.616;10.032;2022-11-12T07:05:38;7.00;99.90
10873;DHT22;34586;53.616;10.032;2022-11-12T07:08:04;7.10;99.90
10873;DHT22;34586;53.616;10.032;2022-11-12T07:10:30;6.90;99.90
10873;DHT22;34586;53.616;10.032;2022-11-12T07:12:56;6.90;99.90
10873;DHT22;34586;53.616;10.032;2022-11-12T07:15:22;6.90;99.90
10873;DHT22;34586;53.616;10.032;2022-11-12T07:17:48;6.90;99.90
10873;DHT22;34586;53.616;10.032;2022-11-12T07:20:13;7.00;99.90
10873;DHT22;34586;53.616;10.032;2022-11-12T07:22:39;7.00;99.90
10873;DHT22;34586;53.616;10.032;2022-11-12T07:25:05;7.00;99.90
10873;DHT22;34586;53.616;10.032;2022-11-12T07:27:31;7.00;99.90
10873;DHT22;34586;53.616;10.032;2022-11-12T07:29:56;7.00;99.90
10873;DHT22;34586;53.616;10.032;2022-11-12T07:32:22;7.00;99.90
10873;DHT22;34586;53.616;10.032;2022-11-12T07:34:48;7.00;99.90
10873;DHT22;34586;53.616;10.032;2022-11-12T07:37:16;7.00;99.90
10873;DHT22;34586;53.616;10.032;2022-11-12T07:39:42;7.10;99.90
10873;DHT22;34586;53.616;10.032;2022-11-12T07:42:07;7.20;99.90
10873;DHT22;34586;53.616;10.032;2022-11-12T07:44:33;7.10;99.90
10873;DHT22;34586;53.616;10.032;2022-11-12T07:46:58;7.10;99.90
10873;DHT22;34586;53.616;10.032;2022-11-12T07:49:24;7.30;99.90
10873;DHT22;34586;53.616;10.032;2022-11-12T07:51:51;7.20;99.90
10873;DHT22;34586;53.616;10.032;2022-11-12T07:54:16;7.30;99.90
10873;DHT22;34586;53.616;10.032;2022-11-12T07:56:42;7.30;99.90
10873;DHT22;34586;53.616;10.032;2022-11-12T07:59:08;7.40;99.90
10873;DHT22;34586;53.616;10.032;2022-11-12T08:01:38;7.30;99.90
10873;DHT22;34586;53.616;10.032;2022-11-12T08:04:07;7.20;99.90
10873;DHT22;34586;53.616;10.032;2022-11-12T08:06:33;7.50;99.90
10873;DHT22;34586;53.616;10.032;2022-11-12T08:09:01;7.40;99.90
10873;DHT22;34586;53.616;10.032;2022-11-12T08:11:27;7.50;99.90
10873;DHT22;34586;53.616;10.032;2022-11-12T08:13:53;7.50;99.90
10873;DHT22;34586;53.616;10.032;2022-11-12T08:16:19;7.50;99.90
10873;DHT22;34586;53.616;10.032;2022-11-12T08:18:45;7.60;99.90
10873;DHT22;34586;53.616;10.032;2022-11-12T08:21:13;7.60;99.90
10873;DHT22;34586;53.616;10.032;2022-11-12T08:23:40;7.70;99.90
10873;DHT22;34586;53.616;10.032;2022-11-12T08:26:09;7.70;99.90
10873;DHT22;34586;53.616;10.032;2022-11-12T08:28:36;7.80;99.90
10873;DHT22;34586;53.616;10.032;2022-11-12T08:31:07;7.80;99.90
10873;DHT22;34586;53.616;10.032;2022-11-12T08:33:34;7.90;99.90
10873;DHT22;34586;53.616;10.032;2022-11-12T08:36:09;7.90;99.90
10873;DHT22;34586;53.616;10.032;2022-11-12T08:38:37;8.00;99.90
10873;DHT22;34586;53.616;10.032;2022-11-12T08:41:08;8.00;99.90
10873;DHT22;34586;53.616;10.032;2022-11-12T08:43:34;8.10;99.90
10873;DHT22;34586;53.616;10.032;2022-11-12T08:46:01;8.20;99.90
10873;DHT22;34586;53.616;10.032;2022-11-12T08:48:28;8.20;99.90
10873;DHT22;34586;53.616;10.032;2022-11-12T08:50:55;8.30;99.90
10873;DHT22;34586;53.616;10.032;2022-11-12T08:53:23;8.30;99.90
10873;DHT22;34586;53.616;10.032;2022-11-12T08:55:52;8.40;99.90
10873;DHT22;34586;53.616;10.032;2022-11-12T08:58:18;8.50;99.90
10873;DHT22;34586;53.616;10.032;2022-11-12T09:00:45;8.60;99.90
10873;DHT22;34586;53.616;10.032;2022-11-12T09:03:15;8.50;99.90
10873;DHT22;34586;53.616;10.032;2022-11-12T09:05:42;8.60;99.90
10873;DHT22;34586;53.616;10.032;2022-11-12T09:08:17;8.70;99.90
10873;DHT22;34586;53.616;10.032;2022-11-12T09:10:44;8.70;99.90
10873;DHT22;34586;53.616;10.032;2022-11-12T09:13:10;8.80;99.90
10873;DHT22;34586;53.616;10.032;2022-11-12T09:15:36;8.90;99.90
10873;DHT22;34586;53.616;10.032;2022-11-12T09:18:04;8.90;99.90
10873;DHT22;34586;53.616;10.032;2022-11-12T09:20:31;8.90;99.90
10873;DHT22;34586;53.616;10.032;2022-11-12T09:23:04;8.90;99.90
10873;DHT22;34586;53.616;10.032;2022-11-12T09:25:30;9.00;99.90
10873;DHT22;34586;53.616;10.032;2022-11-12T09:27:56;9.10;99.90
10873;DHT22;34586;53.616;10.032;2022-11-12T09:30:22;9.10;99.90
10873;DHT22;34586;53.616;10.032;2022-11-12T09:32:48;9.10;82.10
10873;DHT22;34586;53.616;10.032;2022-11-12T09:35:15;9.20;94.30
10873;DHT22;34586;53.616;10.032;2022-11-12T09:37:40;9.20;93.10
10873;DHT22;34586;53.616;10.032;2022-11-12T09:40:09;9.20;51.70
10873;DHT22;34586;53.616;10.032;2022-11-12T09:42:40;9.30;38.00
10873;DHT22;34586;53.616;10.032;2022-11-12T09:45:21;9.40;1.00
10873;DHT22;34586;53.616;10.032;2022-11-12T09:47:53;9.40;3.60
10873;DHT22;34586;53.616;10.032;2022-11-12T09:50:42;9.50;25.00
10873;DHT22;34586;53.616;10.032;2022-11-12T09:53:35;9.50;8.60
10873;DHT22;34586;53.616;10.032;2022-11-12T09:56:05;9.60;21.20
10873;DHT22;34586;53.616;10.032;2022-11-12T09:58:31;9.60;17.30
10873;DHT22;34586;53.616;10.032;2022-11-12T10:01:13;9.60;26.70
10873;DHT22;34586;53.616;10.032;2022-11-12T10:07:19;9.70;8.40
10873;DHT22;34586;53.616;10.032;2022-11-12T10:15:46;9.90;1.00
10873;DHT22;34586;53.616;10.032;2022-11-12T10:18:39;10.00;1.00
10873;DHT22;34586;53.616;10.032;2022-11-12T10:23:41;10.20;1.00
10873;DHT22;34586;53.616;10.032;2022-11-12T10:26:13;10.30;1.00
10873;DHT22;34586;53.616;10.032;2022-11-12T10:28:47;10.40;1.00
10873;DHT22;34586;53.616;10.032;2022-11-12T10:31:17;10.40;1.00
10873;DHT22;34586;53.616;10.032;2022-11-12T10:33:43;10.50;1.00
10873;DHT22;34586;53.616;10.032;2022-11-12T10:36:26;10.60;1.00
10873;DHT22;34586;53.616;10.032;2022-11-12T10:38:58;10.60;1.00
10873;DHT22;34586;53.616;10.032;2022-11-12T10:41:32;10.80;1.00
10873;DHT22;34586;53.616;10.032;2022-11-12T10:44:03;10.70;1.00
10873;DHT22;34586;53.616;10.032;2022-11-12T10:46:35;10.80;1.00
10873;DHT22;34586;53.616;10.032;2022-11-12T10:51:31;10.80;1.00
10873;DHT22;34586;53.616;10.032;2022-11-12T10:53:58;10.80;1.00
10873;DHT22;34586;53.616;10.032;2022-11-12T10:56:30;10.80;1.00
10873;DHT22;34586;53.616;10.032;2022-11-12T10:59:22;10.80;1.00
10873;DHT22;34586;53.616;10.032;2022-11-12T11:01:59;10.80;1.00
10873;DHT22;34586;53.616;10.032;2022-11-12T11:04:34;10.80;1.00
10873;DHT22;34586;53.616;10.032;2022-11-12T11:07:21;10.90;1.00
10873;DHT22;34586;53.616;10.032;2022-11-12T11:10:01;10.90;1.00
10873;DHT22;34586;53.616;10.032;2022-11-12T11:12:32;11.00;1.00
10873;DHT22;34586;53.616;10.032;2022-11-12T11:15:07;11.00;1.00
10873;DHT22;34586;53.616;10.032;2022-11-12T11:17:33;11.10;1.00
10873;DHT22;34586;53.616;10.032;2022-11-12T11:20:00;11.10;1.00
10873;DHT22;34586;53.616;10.032;2022-11-12T11:22:40;11.20;1.00
10873;DHT22;34586;53.616;10.032;2022-11-12T11:25:19;11.30;99.90
10873;DHT22;34586;53.616;10.032;2022-11-12T11:28:13;11.40;99.90
10873;DHT22;34586;53.616;10.032;2022-11-12T11:31:01;11.40;99.90
10873;DHT22;34586;53.616;10.032;2022-11-12T11:33:43;11.50;99.90
10873;DHT22;34586;53.616;10.032;2022-11-12T11:44:38;11.80;1.00
10873;DHT22;34586;53.616;10.032;2022-11-12T11:47:42;11.90;1.00
10873;DHT22;34586;53.616;10.032;2022-11-12T11:52:54;12.20;1.00
10873;DHT22;34586;53.616;10.032;2022-11-12T12:01:35;12.40;68.50
10873;DHT22;34586;53.616;10.032;2022-11-12T12:04:31;12.60;81.60
10873;DHT22;34586;53.616;10.032;2022-11-12T12:10:02;12.80;99.90
10873;DHT22;34586;53.616;10.032;2022-11-12T12:13:20;12.80;99.90
10873;DHT22;34586;53.616;10.032;2022-11-12T12:19:10;12.80;1.00
10873;DHT22;34586;53.616;10.032;2022-11-12T12:21:44;12.70;99.90
10873;DHT22;34586;53.616;10.032;2022-11-12T12:24:27;12.60;1.00
10873;DHT22;34586;53.616;10.032;2022-11-12T12:26:59;12.50;21.00
10873;DHT22;34586;53.616;10.032;2022-11-12T12:35:43;12.30;1.00
10873;DHT22;34586;53.616;10.032;2022-11-12T12:40:38;12.10;1.00
10873;DHT22;34586;53.616;10.032;2022-11-12T12:43:27;12.10;1.00
10873;DHT22;34586;53.616;10.032;2022-11-12T12:45:56;12.10;47.80
10873;DHT22;34586;53.616;10.032;2022-11-12T12:48:31;12.10;99.90
10873;DHT22;34586;53.616;10.032;2022-11-12T12:50:57;12.10;99.90
10873;DHT22;34586;53.616;10.032;2022-11-12T12:58:40;12.20;1.00
10873;DHT22;34586;53.616;10.032;2022-11-12T13:03:52;12.30;99.90
10873;DHT22;34586;53.616;10.032;2022-11-12T13:25:26;12.50;1.00
10873;DHT22;34586;53.616;10.032;2022-11-12T13:37:51;12.50;1.00
10873;DHT22;34586;53.616;10.032;2022-11-12T13:45:54;12.50;1.00
10873;DHT22;34586;53.616;10.032;2022-11-12T13:48:38;12.50;1.00
10873;DHT22;34586;53.616;10.032;2022-11-12T13:57:34;12.40;1.00
10873;DHT22;34586;53.616;10.032;2022-11-12T14:02:44;12.40;1.00
10873;DHT22;34586;53.616;10.032;2022-11-12T14:05:20;12.40;1.00
10873;DHT22;34586;53.616;10.032;2022-11-12T14:10:40;12.30;1.00
10873;DHT22;34586;53.616;10.032;2022-11-12T14:22:19;12.00;1.00
10873;DHT22;34586;53.616;10.032;2022-11-12T14:24:44;11.90;1.00
10873;DHT22;34586;53.616;10.032;2022-11-12T14:32:40;11.70;1.00
10873;DHT22;34586;53.616;10.032;2022-11-12T14:35:17;11.60;1.00
10873;DHT22;34586;53.616;10.032;2022-11-12T14:37:49;11.60;1.00
10873;DHT22;34586;53.616;10.032;2022-11-12T14:40:17;11.60;1.00
10873;DHT22;34586;53.616;10.032;2022-11-12T14:42:43;11.50;6.00
10873;DHT22;34586;53.616;10.032;2022-11-12T14:45:17;11.40;4.00
10873;DHT22;34586;53.616;10.032;2022-11-12T14:47:44;11.50;1.00
10873;DHT22;34586;53.616;10.032;2022-11-12T14:53:06;11.30;1.00
10873;DHT22;34586;53.616;10.032;2022-11-12T14:55:36;11.30;25.90
10873;DHT22;34586;53.616;10.032;2022-11-12T14:58:03;11.30;49.80
10873;DHT22;34586;53.616;10.032;2022-11-12T15:02:56;11.10;52.10
10873;DHT22;34586;53.616;10.032;2022-11-12T15:05:22;11.00;50.00
10873;DHT22;34586;53.616;10.032;2022-11-12T15:10:34;10.90;62.40
10873;DHT22;34586;53.616;10.032;2022-11-12T15:13:21;10.80;75.30
10873;DHT22;34586;53.616;10.032;2022-11-12T15:16:06;10.60;93.60
10873;DHT22;34586;53.616;10.032;2022-11-12T15:18:32;10.50;99.90
10873;DHT22;34586;53.616;10.032;2022-11-12T15:21:24;10.40;99.90
10873;DHT22;34586;53.616;10.032;2022-11-12T15:26:43;10.20;99.90
10873;DHT22;34586;53.616;10.032;2022-11-12T15:31:47;10.10;99.90
10873;DHT22;34586;53.616;10.032;2022-11-12T15:34:25;10.00;99.90
10873;DHT22;34586;53.616;10.032;2022-11-12T15:36:53;9.90;99.90
10873;DHT22;34586;53.616;10.032;2022-11-12T15:39:19;9.90;99.90
10873;DHT22;34586;53.616;10.032;2022-11-12T15:41:45;9.80;99.90
10873;DHT22;34586;53.616;10.032;2022-11-12T15:44:11;9.80;99.90
10873;DHT22;34586;53.616;10.032;2022-11-12T15:46:37;9.70;99.90
10873;DHT22;34586;53.616;10.032;2022-11-12T15:49:13;9.60;99.90
10873;DHT22;34586;53.616;10.032;2022-11-12T15:51:38;9.50;99.90
10873;DHT22;34586;53.616;10.032;2022-11-12T15:54:04;9.40;99.90
10873;DHT22;34586;53.616;10.032;2022-11-12T15:56:30;9.40;99.90
10873;DHT22;34586;53.616;10.032;2022-11-12T15:58:56;9.30;99.90
10873;DHT22;34586;53.616;10.032;2022-11-12T16:01:22;9.30;99.90
10873;DHT22;34586;53.616;10.032;2022-11-12T16:03:47;9.20;99.90
10873;DHT22;34586;53.616;10.032;2022-11-12T16:06:13;9.20;99.90
10873;DHT22;34586;53.616;10.032;2022-11-12T16:08:38;9.20;99.90
10873;DHT22;34586;53.616;10.032;2022-11-12T16:11:04;9.10;99.90
10873;DHT22;34586;53.616;10.032;2022-11-12T16:13:50;9.10;99.90
10873;DHT22;34586;53.616;10.032;2022-11-12T16:16:16;9.00;99.90
10873;DHT22;34586;53.616;10.032;2022-11-12T16:18:41;9.00;99.90
10873;DHT22;34586;53.616;10.032;2022-11-12T16:21:07;8.90;99.90
10873;DHT22;34586;53.616;10.032;2022-11-12T16:23:33;8.90;99.90
10873;DHT22;34586;53.616;10.032;2022-11-12T16:26:00;8.90;99.90
10873;DHT22;34586;53.616;10.032;2022-11-12T16:28:26;8.80;99.90
10873;DHT22;34586;53.616;10.032;2022-11-12T16:30:52;8.70;99.90
10873;DHT22;34586;53.616;10.032;2022-11-12T16:33:18;8.60;99.90
10873;DHT22;34586;53.616;10.032;2022-11-12T16:35:43;8.60;99.90
10873;DHT22;34586;53.616;10.032;2022-11-12T16:38:12;8.40;99.90
10873;DHT22;34586;53.616;10.032;2022-11-12T16:40:42;8.50;99.90
10873;DHT22;34586;53.616;10.032;2022-11-12T16:43:09;8.40;99.90
10873;DHT22;34586;53.616;10.032;2022-11-12T16:45:37;8.40;99.90
10873;DHT22;34586;53.616;10.032;2022-11-12T16:48:10;8.30;99.90
10873;DHT22;34586;53.616;10.032;2022-11-12T16:50:36;8.30;99.90
10873;DHT22;34586;53.616;10.032;2022-11-12T16:53:02;8.20;99.90
10873;DHT22;34586;53.616;10.032;2022-11-12T16:55:28;8.20;99.90
10873;DHT22;34586;53.616;10.032;2022-11-12T16:57:53;8.20;99.90
10873;DHT22;34586;53.616;10.032;2022-11-12T17:00:19;8.10;99.90
10873;DHT22;34586;53.616;10.032;2022-11-12T17:02:45;8.10;99.90
10873;DHT22;34586;53.616;10.032;2022-11-12T17:05:17;8.00;99.90
10873;DHT22;34586;53.616;10.032;2022-11-12T17:07:44;8.00;99.90
10873;DHT22;34586;53.616;10.032;2022-11-12T17:10:10;8.00;99.90
10873;DHT22;34586;53.616;10.032;2022-11-12T17:12:36;7.90;99.90
10873;DHT22;34586;53.616;10.032;2022-11-12T17:15:02;8.00;99.90
10873;DHT22;34586;53.616;10.032;2022-11-12T17:17:28;7.80;99.90
10873;DHT22;34586;53.616;10.032;2022-11-12T17:19:53;7.80;99.90
10873;DHT22;34586;53.616;10.032;2022-11-12T17:22:20;7.80;99.90
10873;DHT22;34586;53.616;10.032;2022-11-12T17:24:46;7.80;99.90
10873;DHT22;34586;53.616;10.032;2022-11-12T17:27:12;7.90;99.90
10873;DHT22;34586;53.616;10.032;2022-11-12T17:29:39;7.80;99.90
10873;DHT22;34586;53.616;10.032;2022-11-12T17:32:04;7.80;99.90
10873;DHT22;34586;53.616;10.032;2022-11-12T17:34:30;7.90;99.90
10873;DHT22;34586;53.616;10.032;2022-11-12T17:36:55;7.80;99.90
10873;DHT22;34586;53.616;10.032;2022-11-12T17:39:21;7.80;99.90
10873;DHT22;34586;53.616;10.032;2022-11-12T17:41:48;7.90;99.90
10873;DHT22;34586;53.616;10.032;2022-11-12T17:44:16;8.00;99.90
10873;DHT22;34586;53.616;10.032;2022-11-12T17:46:43;8.00;99.90
10873;DHT22;34586;53.616;10.032;2022-11-12T17:49:09;8.00;99.90
10873;DHT22;34586;53.616;10.032;2022-11-12T17:51:35;8.00;99.90